Time;durP1;ratioP1;P1;durP2;ratioP2;P2;SDS_P1;SDS_P2;PMS_P1;PMS_P2;Temp;Humidity;BMP_temperature;BMP_pressure;BME280_temperature;BME280_humidity;BME280_pressure;Samples;Min_cycle;Max_cycle;Signal;HPM_P1;HPM_P2
2021/06/10 00:01:55;;;;;;;6.12;3.17;;;;;;;23.38;60.52;99296.62;4554766;78;28467;-91
2021/06/10 00:07:57;;;;;;;8.43;5.87;;;;;;;23.11;60.76;99302.41;4535142;78;28425;-91
2021/06/10 00:13:59;;;;;;;9.85;6.17;;;;;;;22.97;63.50;99296.41;4504129;78;28471;-88
2021/06/10 00:20:00;;;;;;;8.45;5.65;;;;;;;23.22;62.97;99292.85;4521512;78;28448;-90
2021/06/10 00:26:01;;;;;;;11.28;6.87;;;;;;;23.12;63.78;99298.57;4421630;80;28559;-92
2021/06/10 00:32:04;;;;;;;10.20;6.67;;;;;;;23.16;63.18;99305.59;4422059;80;28461;-92
2021/06/10 00:38:05;;;;;;;12.37;7.40;;;;;;;22.36;67.41;99298.47;4437653;77;28456;-93
2021/06/10 00:44:08;;;;;;;11.30;7.55;;;;;;;23.04;63.90;99293.23;4535743;78;28549;-93
2021/06/10 00:50:11;;;;;;;11.65;7.15;;;;;;;23.03;63.14;99286.13;4508366;78;28487;-92
2021/06/10 00:56:13;;;;;;;11.28;7.90;;;;;;;22.81;64.72;99286.33;4532593;78;28533;-91
2021/06/10 01:02:14;;;;;;;13.55;8.43;;;;;;;22.74;65.58;99284.56;4494827;77;28458;-90
2021/06/10 01:08:41;;;;;;;15.23;8.33;;;;;;;22.22;69.45;99288.87;4484531;77;28480;-91
2021/06/10 01:15:10;;;;;;;16.35;9.78;;;;;;;22.81;63.94;99285.54;4467692;79;28555;-94
2021/06/10 01:21:12;;;;;;;17.77;9.53;;;;;;;22.58;65.51;99276.42;4521079;79;28487;-96
2021/06/10 01:27:29;;;;;;;15.78;8.75;;;;;;;22.51;65.87;99276.27;4521445;79;28477;-96
2021/06/10 01:33:45;;;;;;;15.63;9.15;;;;;;;22.56;65.30;99276.17;4494889;79;28459;-96
2021/06/10 01:39:49;;;;;;;15.20;9.88;;;;;;;22.67;64.35;99269.91;4370944;77;28549;-94
2021/06/10 01:45:51;;;;;;;15.20;9.58;;;;;;;22.65;63.73;99268.03;4213122;84;28464;-93
2021/06/10 01:51:53;;;;;;;14.93;9.40;;;;;;;22.48;65.66;99262.33;4274378;83;28461;-91
2021/06/10 01:58:00;;;;;;;16.37;9.40;;;;;;;22.38;66.11;99272.38;4257671;83;28522;-90
2021/06/10 02:04:04;;;;;;;16.60;9.70;;;;;;;22.03;67.74;99276.06;4274678;83;28472;-88
2021/06/10 02:10:09;;;;;;;16.40;10.00;;;;;;;21.67;70.83;99274.77;4265817;83;28463;-93
2021/06/10 02:16:13;;;;;;;13.58;9.53;;;;;;;21.75;69.42;99282.84;4246953;83;45901;-93
2021/06/10 02:22:15;;;;;;;14.25;9.28;;;;;;;21.98;66.51;99281.08;4274403;83;28470;-93
2021/06/10 02:28:16;;;;;;;15.30;9.43;;;;;;;22.19;66.78;99288.91;4274608;83;28432;-86
2021/06/10 02:34:18;;;;;;;17.85;10.28;;;;;;;21.77;69.09;99283.92;4250833;83;28508;-88
2021/06/10 02:40:37;;;;;;;17.17;10.03;;;;;;;21.79;68.25;99299.48;4256312;82;28530;-88
2021/06/10 02:46:41;;;;;;;16.73;9.45;;;;;;;21.93;66.91;99289.94;4314361;82;28455;-88
2021/06/10 02:52:47;;;;;;;17.55;9.65;;;;;;;21.90;67.35;99294.08;4291465;83;28470;-88
2021/06/10 02:58:52;;;;;;;14.05;9.45;;;;;;;22.52;63.79;99304.48;4298469;81;28481;-88
2021/06/10 03:04:53;;;;;;;14.90;9.43;;;;;;;22.40;64.44;99303.03;4305982;81;28447;-94
2021/06/10 03:10:58;;;;;;;17.20;10.03;;;;;;;22.83;61.95;99300.53;4312458;83;28544;-93
2021/06/10 03:17:00;;;;;;;20.23;10.43;;;;;;;23.12;60.68;99303.48;4312683;83;28453;-95
2021/06/10 03:23:01;;;;;;;17.82;9.83;;;;;;;23.33;59.68;99302.25;4312232;83;28492;-91
2021/06/10 03:29:06;;;;;;;16.62;10.08;;;;;;;23.21;60.40;99310.98;4303292;81;28421;-93
2021/06/10 03:35:09;;;;;;;17.55;9.88;;;;;;;23.21;61.37;99315.09;4312280;83;28493;-91
2021/06/10 03:41:12;;;;;;;16.45;9.50;;;;;;;23.53;59.39;99316.02;4312689;81;28479;-94
2021/06/10 03:47:15;;;;;;;16.65;9.75;;;;;;;23.36;60.14;99318.07;4313030;83;28595;-92
2021/06/10 03:53:18;;;;;;;14.00;8.93;;;;;;;23.60;58.38;99319.16;4312331;82;28465;-90
2021/06/10 03:59:19;;;;;;;17.35;9.48;;;;;;;23.53;58.93;99315.48;4282117;83;28490;-89
2021/06/10 04:05:22;;;;;;;17.85;9.68;;;;;;;23.80;57.31;99317.82;4311756;81;28453;-92
2021/06/10 04:11:24;;;;;;;15.15;9.13;;;;;;;24.04;56.26;99306.28;4272185;81;28536;-92
2021/06/10 04:17:26;;;;;;;14.65;8.75;;;;;;;24.23;55.65;99304.12;4298011;82;28450;-91
2021/06/10 04:23:27;;;;;;;15.20;9.55;;;;;;;24.72;54.02;99308.80;4334998;81;28463;-91
2021/06/10 04:29:28;;;;;;;12.73;8.78;;;;;;;24.27;55.20;99308.42;4338247;81;28478;-89
2021/06/10 04:35:30;;;;;;;17.00;9.23;;;;;;;24.25;54.64;99310.66;4335522;81;28469;-89
2021/06/10 04:41:31;;;;;;;14.45;9.10;;;;;;;24.57;53.72;99316.13;4296453;82;28470;-91
2021/06/10 04:47:32;;;;;;;13.95;9.00;;;;;;;24.90;53.01;99315.19;4278547;83;28538;-90
2021/06/10 04:53:33;;;;;;;14.33;9.03;;;;;;;24.81;53.37;99317.66;4282154;83;29109;-94
2021/06/10 04:59:35;;;;;;;15.85;8.78;;;;;;;25.18;52.70;99314.09;4275877;83;28475;-82
2021/06/10 05:05:42;;;;;;;15.85;9.25;;;;;;;25.47;51.02;99314.02;4247578;83;28450;-85
2021/06/10 05:11:45;;;;;;;14.95;8.55;;;;;;;25.81;50.94;99311.00;4234348;83;28537;-83
2021/06/10 05:17:49;;;;;;;13.48;8.28;;;;;;;25.37;51.78;99317.09;4210349;83;28553;-85
2021/06/10 05:23:50;;;;;;;15.15;8.65;;;;;;;25.37;52.05;99315.72;4236127;83;28487;-84
2021/06/10 05:29:52;;;;;;;14.75;8.65;;;;;;;25.47;52.00;99313.44;4242028;83;28512;-84
2021/06/10 05:35:53;;;;;;;12.90;8.28;;;;;;;25.79;51.07;99313.27;4246265;83;28542;-84
2021/06/10 05:41:55;;;;;;;14.10;8.58;;;;;;;25.74;51.44;99315.63;4262951;81;28535;-85
2021/06/10 05:47:56;;;;;;;13.68;8.40;;;;;;;25.88;51.77;99309.94;4298553;82;28482;-85
2021/06/10 05:53:58;;;;;;;10.65;7.70;;;;;;;25.42;52.92;99305.91;4282188;82;28482;-85
2021/06/10 05:59:59;;;;;;;11.15;7.53;;;;;;;25.54;52.30;99304.70;4304641;82;28465;-85
2021/06/10 06:06:00;;;;;;;13.18;7.05;;;;;;;25.50;53.03;99309.26;4303003;82;28445;-86
2021/06/10 06:12:06;;;;;;;9.10;6.50;;;;;;;25.40;51.47;99305.43;4304958;82;28437;-87
2021/06/10 06:18:08;;;;;;;10.28;7.08;;;;;;;25.91;51.15;99304.32;4320400;82;28493;-86
2021/06/10 06:24:12;;;;;;;10.03;5.95;;;;;;;25.37;50.27;99301.95;4317046;82;28486;-84
2021/06/10 06:30:16;;;;;;;12.33;6.97;;;;;;;25.61;49.05;99308.34;4322346;82;28426;-88
2021/06/10 06:36:17;;;;;;;10.95;6.08;;;;;;;25.88;50.43;99314.07;4322407;82;28556;-87
2021/06/10 06:42:19;;;;;;;10.23;6.25;;;;;;;26.27;48.59;99318.83;4310293;82;28737;-86
2021/06/10 06:48:21;;;;;;;13.60;6.03;;;;;;;26.14;47.38;99318.68;4311843;81;28451;-89
2021/06/10 06:54:26;;;;;;;11.68;5.75;;;;;;;26.27;47.23;99315.52;4305502;81;28479;-89
2021/06/10 07:00:28;;;;;;;9.40;5.17;;;;;;;26.37;47.17;99311.57;4302567;81;28486;-86
2021/06/10 07:06:29;;;;;;;12.40;5.90;;;;;;;26.62;44.46;99312.34;4264276;83;28456;-89
2021/06/10 07:12:30;;;;;;;7.45;5.45;;;;;;;26.60;45.18;99320.94;4291428;82;28500;-93
2021/06/10 07:18:32;;;;;;;6.92;3.90;;;;;;;26.35;47.13;99317.98;4308459;81;28458;-88
2021/06/10 07:24:33;;;;;;;8.35;4.55;;;;;;;26.40;43.76;99322.51;4265677;81;28489;-86
2021/06/10 07:30:35;;;;;;;9.00;4.50;;;;;;;26.81;43.25;99325.70;4294569;81;28488;-83
2021/06/10 07:36:37;;;;;;;8.73;3.83;;;;;;;25.87;43.30;99324.81;4291347;81;28550;-83
2021/06/10 07:42:38;;;;;;;8.60;4.10;;;;;;;26.49;41.56;99323.28;4285567;81;28501;-83
2021/06/10 07:48:40;;;;;;;3.55;1.80;;;;;;;26.44;43.03;99324.83;4273962;81;28536;-81
2021/06/10 07:54:41;;;;;;;4.47;1.72;;;;;;;25.40;38.91;99337.87;4277807;81;28493;-80
2021/06/10 08:00:42;;;;;;;2.87;2.10;;;;;;;26.18;39.04;99330.65;4284933;81;28470;-81
2021/06/10 08:06:43;;;;;;;5.65;2.08;;;;;;;26.03;39.83;99332.58;4289443;82;28559;-80
2021/06/10 08:12:46;;;;;;;5.22;2.50;;;;;;;26.25;39.79;99332.13;4292419;81;28521;-77
2021/06/10 08:18:47;;;;;;;3.72;2.60;;;;;;;25.90;40.10;99331.63;4290518;82;28453;-79
2021/06/10 08:24:49;;;;;;;2.30;2.10;;;;;;;25.68;39.67;99336.20;4288001;81;28456;-81
2021/06/10 08:30:51;;;;;;;2.85;1.87;;;;;;;25.57;39.24;99338.48;4335014;81;28442;-81
2021/06/10 08:36:52;;;;;;;4.03;2.33;;;;;;;26.16;39.03;99330.17;4287755;81;28500;-80
2021/06/10 08:42:55;;;;;;;5.80;2.27;;;;;;;25.86;39.19;99330.67;4290998;81;28455;-80
2021/06/10 08:48:57;;;;;;;2.42;2.02;;;;;;;26.57;37.77;99333.47;4294878;82;28470;-80
2021/06/10 08:54:59;;;;;;;1.95;1.75;;;;;;;26.27;38.72;99338.94;4306666;81;28426;-80
2021/06/10 09:01:02;;;;;;;3.02;2.08;;;;;;;27.22;35.29;99339.33;4282547;81;28562;-80
2021/06/10 09:07:04;;;;;;;3.33;1.92;;;;;;;26.87;36.78;99335.41;4283764;81;28556;-79
2021/06/10 09:13:07;;;;;;;2.67;1.98;;;;;;;27.01;35.42;99350.36;4279982;81;28522;-78
2021/06/10 09:19:17;;;;;;;2.47;1.70;;;;;;;26.59;37.49;99333.94;4288384;81;28467;-78
2021/06/10 09:25:22;;;;;;;2.33;1.67;;;;;;;26.66;36.16;99336.17;4266801;81;28469;-78
2021/06/10 09:31:33;;;;;;;3.42;1.80;;;;;;;26.48;35.46;99337.38;4290427;81;28461;-79
2021/06/10 09:37:43;;;;;;;2.85;1.90;;;;;;;27.60;34.69;99344.52;4273997;81;28579;-81
2021/06/10 09:43:47;;;;;;;3.65;2.30;;;;;;;27.18;35.34;99338.39;4248574;81;28599;-81
2021/06/10 09:49:49;;;;;;;5.03;1.67;;;;;;;26.88;36.46;99340.39;4201165;82;28541;-81
2021/06/10 09:55:59;;;;;;;1.70;1.60;;;;;;;27.21;35.14;99342.44;4204314;82;28504;-80
2021/06/10 10:02:26;;;;;;;2.50;1.70;;;;;;;27.31;33.37;99342.04;4216819;82;28545;-81
2021/06/10 10:08:29;;;;;;;1.98;1.70;;;;;;;27.68;32.46;99340.84;4213005;82;28503;-81
2021/06/10 10:14:30;;;;;;;4.30;1.75;;;;;;;28.02;33.72;99353.86;4223077;82;28478;-81
2021/06/10 10:20:32;;;;;;;3.67;1.62;;;;;;;28.09;33.96;99336.95;4221279;82;28481;-81
2021/06/10 10:26:36;;;;;;;2.85;1.30;;;;;;;28.30;32.96;99325.03;4221004;82;28480;-80
2021/06/10 10:32:43;;;;;;;3.87;1.70;;;;;;;28.35;31.02;99315.71;4234629;82;28486;-79
2021/06/10 10:38:44;;;;;;;;;;;;;;;27.83;32.59;99309.61;4224091;82;28476;-81
2021/06/10 10:44:50;;;;;;;3.42;1.60;;;;;;;28.22;32.76;99301.06;4259276;81;20566;-77
2021/06/10 10:50:53;;;;;;;2.40;1.40;;;;;;;27.98;31.65;99313.67;4284103;81;28470;-81
2021/06/10 10:56:55;;;;;;;1.72;1.40;;;;;;;27.52;31.92;99307.50;4294552;81;28491;-80
2021/06/10 11:03:34;;;;;;;2.75;1.65;;;;;;;27.52;31.18;99299.80;4303006;81;28492;-81
2021/06/10 11:09:42;;;;;;;2.77;1.40;;;;;;;27.77;32.11;99297.14;4289547;81;28461;-82
2021/06/10 11:15:51;;;;;;;5.60;1.72;;;;;;;27.95;31.14;99291.67;4361072;81;28556;-81
2021/06/10 11:21:53;;;;;;;3.62;1.60;;;;;;;28.04;31.94;99292.94;4337407;81;28517;-81
2021/06/10 11:28:12;;;;;;;1.95;1.60;;;;;;;28.91;30.84;99268.66;4353232;81;28505;-81
2021/06/10 11:34:31;;;;;;;2.83;1.50;;;;;;;27.79;31.63;99273.56;4314243;81;28481;-83
2021/06/10 11:40:32;;;;;;;2.72;1.22;;;;;;;28.22;31.58;99263.75;4320448;82;28495;-83
2021/06/10 11:46:39;;;;;;;1.95;1.47;;;;;;;28.58;30.37;99244.73;4264359;82;28459;-82
2021/06/10 11:52:54;;;;;;;3.27;1.60;;;;;;;28.32;30.57;99239.80;4239443;83;28566;-82
2021/06/10 11:59:03;;;;;;;3.30;1.40;;;;;;;28.20;30.83;99237.04;4269355;82;28457;-83
2021/06/10 12:05:17;;;;;;;2.52;1.50;;;;;;;29.45;29.53;99221.78;4225475;83;28478;-79
2021/06/10 12:11:17;;;;;;;3.90;1.30;;;;;;;28.35;31.16;99222.50;4258510;82;28550;-82
2021/06/10 12:17:18;;;;;;;1.62;1.20;;;;;;;28.33;30.34;99223.44;4275790;82;28537;-81
2021/06/10 12:23:24;;;;;;;2.12;1.30;;;;;;;28.55;29.32;99209.48;4287297;83;28504;-79
2021/06/10 12:29:25;;;;;;;1.40;1.27;;;;;;;28.79;29.16;99198.34;4241488;82;28521;-81
2021/06/10 12:35:26;;;;;;;3.58;1.60;;;;;;;28.63;29.87;99198.28;4271118;82;28486;-81
2021/06/10 12:41:32;;;;;;;2.85;1.65;;;;;;;28.39;30.38;99188.88;4248418;80;28536;-80
2021/06/10 12:47:35;;;;;;;2.87;1.70;;;;;;;29.06;29.48;99174.41;4344240;81;28490;-80
2021/06/10 12:53:39;;;;;;;3.10;1.67;;;;;;;29.06;29.88;99176.62;4308334;81;28470;-80
2021/06/10 12:59:40;;;;;;;2.80;1.80;;;;;;;29.16;29.95;99169.75;4260748;82;28497;-78
2021/06/10 13:05:41;;;;;;;2.42;1.77;;;;;;;29.81;29.32;99162.91;4296392;81;28461;-79
2021/06/10 13:11:43;;;;;;;1.95;1.85;;;;;;;30.05;28.57;99153.05;4303805;81;28509;-81
2021/06/10 13:18:10;;;;;;;3.65;2.10;;;;;;;28.62;30.85;99152.98;4351915;80;28538;-80
2021/06/10 13:24:12;;;;;;;3.73;1.90;;;;;;;29.01;29.54;99145.03;4257507;82;28511;-79
2021/06/10 13:30:18;;;;;;;5.50;2.27;;;;;;;28.64;29.86;99154.84;4303861;81;37019;-79
2021/06/10 13:36:24;;;;;;;4.80;2.60;;;;;;;28.82;32.53;99171.98;4319803;81;28463;-83
2021/06/10 13:42:28;;;;;;;4.72;2.92;;;;;;;28.79;32.38;99167.92;4319247;81;28529;-84
2021/06/10 13:48:30;;;;;;;3.02;2.67;;;;;;;27.58;35.71;99171.45;4345163;81;28496;-82
2021/06/10 13:54:32;;;;;;;4.08;2.92;;;;;;;28.59;35.62;99165.58;4263809;82;28486;-83
2021/06/10 14:00:33;;;;;;;5.50;3.27;;;;;;;28.21;36.74;99155.73;4295476;81;28599;-83
2021/06/10 14:06:35;;;;;;;4.17;2.95;;;;;;;29.59;34.37;99159.04;4278101;81;28447;-82
2021/06/10 14:12:36;;;;;;;6.47;3.50;;;;;;;29.11;34.74;99159.52;4296073;81;28466;-81
2021/06/10 14:18:37;;;;;;;5.67;3.10;;;;;;;28.06;37.21;99160.77;4256415;81;28492;-83
2021/06/10 14:24:42;;;;;;;5.10;2.85;;;;;;;29.25;35.37;99166.02;4284316;81;28478;-82
2021/06/10 14:36:46;;;;;;;3.50;2.25;;;;;;;27.58;36.03;99172.03;4343493;80;28480;-80
2021/06/10 14:42:46;;;;;;;2.52;2.08;;;;;;;27.38;34.85;99166.21;4286309;81;28528;-82
2021/06/10 14:48:50;;;;;;;2.20;2.00;;;;;;;27.07;35.65;99163.36;4300478;81;28504;-82
2021/06/10 14:54:51;;;;;;;3.60;2.17;;;;;;;28.08;34.56;99155.72;4321021;80;28501;-82
2021/06/10 15:00:53;;;;;;;3.72;2.22;;;;;;;27.42;36.44;99156.09;4247245;82;28526;-81
2021/06/10 15:06:54;;;;;;;6.65;2.80;;;;;;;28.35;34.55;99148.46;4326722;80;28435;-82
2021/06/10 15:12:55;;;;;;;2.85;2.02;;;;;;;27.19;36.46;99150.19;4325704;80;28477;-82
2021/06/10 15:18:56;;;;;;;4.25;2.25;;;;;;;28.67;34.79;99144.45;4352081;80;28553;-82
2021/06/10 15:24:58;;;;;;;6.03;2.75;;;;;;;28.39;35.71;99139.12;4327084;80;28911;-82
2021/06/10 15:30:59;;;;;;;2.92;2.50;;;;;;;28.66;35.49;99130.41;4352588;80;28524;-82
2021/06/10 15:37:01;;;;;;;2.50;2.10;;;;;;;29.67;34.50;99134.27;4362372;80;28479;-81
2021/06/10 15:43:02;;;;;;;4.50;2.42;;;;;;;29.69;34.11;99131.38;4261783;81;28474;-81
2021/06/10 15:49:04;;;;;;;6.97;2.35;;;;;;;29.73;34.11;99125.35;4236539;82;28502;-82
2021/06/10 15:55:06;;;;;;;3.50;2.67;;;;;;;29.41;34.77;99126.69;4242189;82;28473;-82
2021/06/10 16:01:07;;;;;;;3.37;2.65;;;;;;;29.57;34.78;99121.18;4240218;83;28502;-81
2021/06/10 16:07:08;;;;;;;2.85;2.30;;;;;;;28.53;36.85;99124.92;4275607;83;28443;-83
2021/06/10 16:13:12;;;;;;;5.55;2.22;;;;;;;29.73;35.30;99118.43;4262084;83;28460;-81
2021/06/10 16:19:14;;;;;;;3.33;1.87;;;;;;;29.88;33.50;99128.45;4257793;83;28456;-78
2021/06/10 16:25:18;;;;;;;4.15;2.60;;;;;;;30.01;31.83;99122.23;4238151;83;28560;-81
2021/06/10 16:31:19;;;;;;;3.22;1.82;;;;;;;30.42;30.74;99126.11;4240239;82;28636;-81
2021/06/10 16:37:20;;;;;;;3.08;1.80;;;;;;;30.64;30.53;99116.30;4234579;82;28511;-83
2021/06/10 16:43:23;;;;;;;6.08;1.92;;;;;;;30.15;31.30;99115.64;4238660;82;28524;-84
2021/06/10 16:49:24;;;;;;;2.17;1.98;;;;;;;30.77;30.53;99109.20;4292261;81;28500;-82
2021/06/10 16:55:25;;;;;;;2.15;1.85;;;;;;;29.46;32.35;99107.08;4287278;81;28466;-84
2021/06/10 17:01:42;;;;;;;3.90;1.98;;;;;;;30.54;31.66;99101.60;4260574;81;28580;-85
2021/06/10 17:07:34;;;;;;;2.77;2.30;;;;;;;31.54;30.89;99106.64;4264897;81;28465;-84
2021/06/10 17:13:35;;;;;;;3.87;1.70;;;;;;;31.65;30.57;99108.19;4265595;81;28488;-82
2021/06/10 17:19:38;;;;;;;3.83;2.00;;;;;;;32.91;29.17;99109.71;4287059;81;28454;-81
2021/06/10 17:25:40;;;;;;;2.15;1.50;;;;;;;31.11;29.47;99119.97;4291817;81;28575;-84
2021/06/10 17:31:44;;;;;;;2.80;1.40;;;;;;;32.76;27.85;99117.92;4278780;81;28431;-82
2021/06/10 17:37:45;;;;;;;2.15;1.20;;;;;;;30.87;29.65;99114.95;4276374;81;28489;-84
2021/06/10 17:43:46;;;;;;;1.77;1.30;;;;;;;30.58;29.65;99119.11;4269981;81;28497;-84
2021/06/10 17:49:48;;;;;;;2.25;1.25;;;;;;;31.29;28.89;99113.38;4307148;81;28501;-82
2021/06/10 17:55:52;;;;;;;3.25;1.40;;;;;;;30.92;29.36;99118.61;4281525;82;28442;-84
2021/06/10 18:01:55;;;;;;;2.52;1.20;;;;;;;30.74;29.77;99121.84;4285624;81;28460;-84
2021/06/10 18:07:56;;;;;;;1.92;1.42;;;;;;;31.32;29.12;99127.11;4302976;81;28500;-84
2021/06/10 18:13:57;;;;;;;3.22;1.42;;;;;;;31.82;28.46;99125.77;4274293;81;28505;-84
2021/06/10 18:19:59;;;;;;;2.87;1.30;;;;;;;30.49;30.20;99129.04;4209020;82;28494;-86
2021/06/10 18:26:01;;;;;;;3.72;1.32;;;;;;;30.49;30.51;99137.94;4209256;82;28554;-84
2021/06/10 18:32:04;;;;;;;4.50;1.82;;;;;;;29.69;33.94;99136.91;4206428;82;28452;-83
2021/06/10 18:38:06;;;;;;;2.55;1.57;;;;;;;29.24;36.28;99136.14;4232443;82;28475;-86
2021/06/10 18:44:08;;;;;;;3.80;2.10;;;;;;;28.55;37.43;99144.50;4226885;81;28504;-85
2021/06/10 18:50:15;;;;;;;2.87;1.57;;;;;;;28.27;36.11;99151.56;4246040;82;28533;-84
2021/06/10 18:56:16;;;;;;;3.98;1.50;;;;;;;28.52;34.79;99152.91;4231666;82;28472;-84
2021/06/10 19:02:18;;;;;;;3.40;1.98;;;;;;;28.45;34.39;99157.66;4225974;81;28470;-84
2021/06/10 19:08:19;;;;;;;3.25;1.47;;;;;;;28.22;34.97;99155.95;4263335;82;28530;-83
2021/06/10 19:14:20;;;;;;;3.05;1.92;;;;;;;28.08;35.46;99164.01;4231745;82;28491;-82
2021/06/10 19:20:21;;;;;;;2.83;1.72;;;;;;;27.74;36.79;99166.64;4227924;81;28446;-82
2021/06/10 19:26:25;;;;;;;9.60;1.98;;;;;;;27.28;38.55;99167.44;4257531;81;28537;-80
2021/06/10 19:32:37;;;;;;;4.45;1.90;;;;;;;26.30;41.39;99173.52;4272386;82;28471;-83
2021/06/10 19:38:38;;;;;;;5.70;2.58;;;;;;;26.21;41.91;99172.16;4249586;82;28494;-83
2021/06/10 19:44:41;;;;;;;4.45;2.72;;;;;;;25.92;42.09;99171.57;4272074;81;28517;-84
2021/06/10 19:50:43;;;;;;;10.03;4.03;;;;;;;25.63;45.43;99172.58;4214703;82;28544;-86
2021/06/10 19:56:44;;;;;;;8.45;3.02;;;;;;;25.44;44.96;99173.73;4209281;82;28452;-78
2021/06/10 20:02:45;;;;;;;6.75;2.90;;;;;;;25.30;46.26;99181.36;4195072;82;28534;-79
2021/06/10 20:08:47;;;;;;;6.92;3.22;;;;;;;25.11;47.10;99179.80;4181833;82;28525;-79
2021/06/10 20:14:48;;;;;;;6.95;2.87;;;;;;;24.93;48.33;99178.98;4210674;82;28457;-79
2021/06/10 20:20:50;;;;;;;7.85;3.00;;;;;;;25.00;48.87;99184.80;4212599;82;28440;-79
2021/06/10 20:26:57;;;;;;;6.42;3.67;;;;;;;24.41;53.36;99185.23;4204016;83;28459;-83
2021/06/10 20:32:59;;;;;;;7.65;3.90;;;;;;;24.39;51.82;99178.67;4218131;82;28498;-77
2021/06/10 20:39:01;;;;;;;6.75;4.65;;;;;;;24.39;51.40;99174.55;4210899;83;28476;-80
2021/06/10 20:45:06;;;;;;;9.55;5.30;;;;;;;24.06;53.86;99178.53;4167122;83;28531;-77
2021/06/10 20:51:09;;;;;;;9.43;4.90;;;;;;;23.95;56.17;99174.40;4174739;84;28503;-78
2021/06/10 20:57:11;;;;;;;11.20;6.25;;;;;;;23.76;58.10;99179.59;4184586;84;28483;-78
2021/06/10 21:03:13;;;;;;;8.93;5.78;;;;;;;23.84;58.18;99179.93;4189174;84;28553;-78
2021/06/10 21:09:15;;;;;;;10.13;6.92;;;;;;;23.98;57.06;99175.70;4170165;84;28553;-78
2021/06/10 21:15:16;;;;;;;11.78;6.90;;;;;;;24.21;55.03;99173.16;4170562;84;28506;-78
2021/06/10 21:21:18;;;;;;;10.88;6.50;;;;;;;24.26;56.09;99179.63;4170215;84;28475;-78
2021/06/10 21:27:19;;;;;;;12.53;6.72;;;;;;;24.61;54.43;99180.49;4170277;84;28459;-78
2021/06/10 21:33:21;;;;;;;12.93;6.42;;;;;;;24.28;54.40;99180.93;4188555;84;28478;-78
2021/06/10 21:39:22;;;;;;;9.38;6.35;;;;;;;24.21;55.21;99177.28;4192392;84;28490;-76
2021/06/10 21:45:24;;;;;;;11.03;6.70;;;;;;;24.12;55.72;99181.12;4200874;82;28513;-76
2021/06/10 21:51:25;;;;;;;14.38;7.15;;;;;;;23.67;57.75;99182.28;4257739;82;28446;-75
2021/06/10 21:57:26;;;;;;;10.75;6.10;;;;;;;23.65;56.23;99179.05;4272374;82;28507;-76
2021/06/10 22:03:28;;;;;;;12.28;6.12;;;;;;;23.56;58.12;99176.82;4249875;83;28470;-76
2021/06/10 22:09:30;;;;;;;9.50;6.03;;;;;;;22.94;62.78;99185.18;4272575;82;28460;-76
2021/06/10 22:15:32;;;;;;;10.30;6.15;;;;;;;23.03;60.96;99179.78;4240351;82;28461;-75
2021/06/10 22:21:36;;;;;;;12.75;6.60;;;;;;;22.95;61.22;99175.28;4263762;82;28494;-75
2021/06/10 22:27:46;;;;;;;11.25;6.42;;;;;;;22.87;62.59;99173.86;4252153;82;28444;-75
2021/06/10 22:33:47;;;;;;;11.45;5.80;;;;;;;22.94;60.65;99176.95;4272474;82;28467;-75
2021/06/10 22:39:49;;;;;;;11.25;6.12;;;;;;;22.82;63.29;99173.41;4244644;83;28499;-75
2021/06/10 22:45:52;;;;;;;9.83;6.00;;;;;;;22.67;63.24;99175.38;4223788;82;28537;-75
2021/06/10 22:51:54;;;;;;;10.10;6.28;;;;;;;22.67;64.07;99166.36;4271896;82;28523;-75
2021/06/10 22:57:55;;;;;;;10.08;6.20;;;;;;;22.86;62.15;99166.73;4247411;82;28450;-76
2021/06/10 23:03:56;;;;;;;9.10;5.90;;;;;;;23.14;60.33;99157.02;4237069;82;28580;-77
2021/06/10 23:09:58;;;;;;;9.30;6.17;;;;;;;23.10;60.15;99149.42;4231224;83;28506;-75
2021/06/10 23:15:59;;;;;;;9.60;5.80;;;;;;;23.19;58.54;99153.59;4274023;82;28439;-75
2021/06/10 23:22:01;;;;;;;9.58;6.00;;;;;;;22.41;64.46;99151.27;4260741;82;28487;-75
2021/06/10 23:28:06;;;;;;;10.05;6.03;;;;;;;22.67;62.02;99141.70;4284402;82;28436;-77
2021/06/10 23:34:07;;;;;;;11.22;5.62;;;;;;;22.15;65.95;99148.27;4293497;82;28519;-76
2021/06/10 23:40:09;;;;;;;9.53;6.12;;;;;;;22.30;64.75;99159.45;4276980;82;28501;-76
2021/06/10 23:46:10;;;;;;;11.48;6.47;;;;;;;22.16;65.29;99155.36;4252498;82;28533;-76
2021/06/10 23:52:12;;;;;;;11.48;7.10;;;;;;;22.31;63.72;99166.55;4252175;82;28488;-76
2021/06/10 23:58:13;;;;;;;12.70;6.62;;;;;;;22.32;62.89;99159.13;4277853;83;28466;-76
